Time;durP1;ratioP1;P1;durP2;ratioP2;P2;SDS_P1;SDS_P2;PMS_P1;PMS_P2;Temp;Humidity;BMP_temperature;BMP_pressure;BME280_temperature;BME280_humidity;BME280_pressure;Samples;Min_cycle;Max_cycle;Signal;HPM_P1;HPM_P2
2021/11/08 00:02:09;;;;;;;11.32;2.80;;;10.80;96.80;;;;;;5052188;28;20381;-63
2021/11/08 00:04:35;;;;;;;10.15;2.45;;;10.80;96.80;;;;;;5064610;28;20036;-63
2021/11/08 00:07:02;;;;;;;11.48;2.92;;;10.70;96.80;;;;;;5071578;28;20107;-63
2021/11/08 00:09:28;;;;;;;9.15;2.50;;;10.80;96.90;;;;;;5070475;28;20421;-63
2021/11/08 00:11:53;;;;;;;9.15;3.45;;;10.70;97.00;;;;;;5071301;28;20040;-63
2021/11/08 00:14:22;;;;;;;11.68;4.05;;;10.80;97.00;;;;;;5070276;28;20116;-63
2021/11/08 00:17:16;;;;;;;8.02;2.30;;;10.70;97.00;;;;;;5066846;28;20032;-63
2021/11/08 00:22:10;;;;;;;11.15;3.03;;;10.70;97.10;;;;;;5051746;28;20472;-63
2021/11/08 00:24:38;;;;;;;9.55;2.35;;;10.70;97.20;;;;;;5052598;28;20024;-62
2021/11/08 00:27:04;;;;;;;13.20;2.58;;;10.70;97.40;;;;;;5051580;28;20036;-62
2021/11/08 00:29:31;;;;;;;9.63;4.10;;;10.70;97.50;;;;;;5051297;28;20571;-63
2021/11/08 00:31:57;;;;;;;10.38;3.10;;;10.70;97.30;;;;;;5051200;28;20047;-64
2021/11/08 00:34:23;;;;;;;12.02;2.53;;;10.70;97.30;;;;;;5050674;28;20029;-63
2021/11/08 00:36:50;;;;;;;12.80;4.68;;;10.70;97.40;;;;;;5051156;28;20048;-62
2021/11/08 00:39:16;;;;;;;11.65;2.80;;;10.70;97.40;;;;;;5062011;28;20028;-62
2021/11/08 00:41:42;;;;;;;11.23;3.10;;;10.70;97.50;;;;;;5071516;28;20427;-62
2021/11/08 00:44:07;;;;;;;12.60;3.28;;;10.70;97.60;;;;;;5061536;28;20116;-62
2021/11/08 00:46:33;;;;;;;11.48;3.00;;;10.70;97.60;;;;;;5062355;28;20111;-62
2021/11/08 00:48:58;;;;;;;10.60;2.92;;;10.70;97.60;;;;;;5050930;28;20112;-63
2021/11/08 00:51:24;;;;;;;11.32;3.10;;;10.70;97.70;;;;;;5069954;28;20039;-62
2021/11/08 00:53:51;;;;;;;9.07;2.58;;;10.70;97.70;;;;;;5069701;28;20080;-62
2021/11/08 00:56:21;;;;;;;13.07;3.40;;;10.70;97.80;;;;;;5070441;28;20024;-62
2021/11/08 00:58:47;;;;;;;9.30;2.63;;;10.70;97.80;;;;;;5063331;28;20107;-62
2021/11/08 01:01:19;;;;;;;10.50;3.05;;;10.70;97.90;;;;;;5050732;28;20119;-63
2021/11/08 01:03:46;;;;;;;8.38;2.75;;;10.70;97.90;;;;;;5050709;28;20029;-62
2021/11/08 01:06:13;;;;;;;5.97;2.60;;;10.70;98.00;;;;;;5051154;28;20108;-62
2021/11/08 01:08:40;;;;;;;7.80;2.95;;;10.60;98.00;;;;;;5050671;28;20021;-63
2021/11/08 01:11:06;;;;;;;11.60;3.70;;;10.60;98.00;;;;;;5050239;28;20045;-63
2021/11/08 01:13:32;;;;;;;10.85;2.55;;;10.60;98.00;;;;;;5051010;28;20074;-63
2021/11/08 01:15:58;;;;;;;9.13;2.70;;;10.70;98.10;;;;;;5050129;28;20055;-62
2021/11/08 01:18:24;;;;;;;6.53;2.45;;;10.70;98.10;;;;;;5050854;28;20385;-62
2021/11/08 01:20:51;;;;;;;10.07;2.58;;;10.70;98.10;;;;;;5058234;28;20108;-63
2021/11/08 01:23:19;;;;;;;8.55;2.55;;;10.70;98.00;;;;;;5067526;28;20037;-63
2021/11/08 01:25:53;;;;;;;10.55;2.80;;;10.70;98.10;;;;;;5050173;28;20540;-63
2021/11/08 01:28:19;;;;;;;8.63;2.72;;;10.60;98.00;;;;;;5052997;28;20029;-63
2021/11/08 01:30:45;;;;;;;10.32;2.35;;;10.60;98.10;;;;;;5070534;28;20036;-63
2021/11/08 01:33:16;;;;;;;9.05;2.42;;;10.70;98.10;;;;;;5069779;28;20532;-63
2021/11/08 01:35:43;;;;;;;9.68;2.80;;;10.70;98.10;;;;;;5070957;28;20109;-63
2021/11/08 01:38:13;;;;;;;8.95;2.60;;;10.70;98.20;;;;;;5069433;28;20028;-63
2021/11/08 01:40:41;;;;;;;14.20;2.85;;;10.70;98.20;;;;;;5070498;28;20060;-63
2021/11/08 01:43:10;;;;;;;10.48;3.20;;;10.70;98.20;;;;;;5068437;28;20469;-63
2021/11/08 01:45:36;;;;;;;9.55;3.10;;;10.70;98.20;;;;;;5050934;28;20098;-63
2021/11/08 01:48:02;;;;;;;8.13;2.15;;;10.70;98.20;;;;;;5067521;28;20033;-63
2021/11/08 01:50:28;;;;;;;13.25;2.95;;;10.70;98.30;;;;;;5061664;28;20036;-63
2021/11/08 01:52:55;;;;;;;11.98;2.70;;;10.70;98.30;;;;;;5069565;28;20056;-63
2021/11/08 01:55:22;;;;;;;11.07;3.22;;;10.70;98.40;;;;;;5068978;28;20072;-65
2021/11/08 01:57:48;;;;;;;8.35;2.75;;;10.60;98.40;;;;;;5069009;28;20518;-63
2021/11/08 02:00:16;;;;;;;8.95;2.60;;;10.70;98.50;;;;;;5050921;28;20029;-64
2021/11/08 02:02:42;;;;;;;7.57;2.40;;;10.70;98.70;;;;;;5050257;28;20024;-65
2021/11/08 02:05:09;;;;;;;8.80;2.55;;;10.60;98.50;;;;;;5067907;28;20037;-64
2021/11/08 02:07:35;;;;;;;9.52;3.03;;;10.60;98.60;;;;;;5071046;28;20499;-64
2021/11/08 02:10:04;;;;;;;8.55;3.28;;;10.70;98.60;;;;;;5061343;28;20021;-64
2021/11/08 02:12:29;;;;;;;12.68;3.20;;;10.70;98.60;;;;;;5053664;28;20032;-64
2021/11/08 02:14:55;;;;;;;11.43;2.50;;;10.60;98.60;;;;;;5053949;28;20032;-63
2021/11/08 02:17:21;;;;;;;8.95;3.45;;;10.60;98.60;;;;;;5053206;28;20096;-64
2021/11/08 02:19:47;;;;;;;9.35;2.55;;;10.70;98.70;;;;;;5053770;28;20030;-64
2021/11/08 02:22:12;;;;;;;13.32;2.80;;;10.70;98.70;;;;;;5053942;28;20071;-64
2021/11/08 02:24:41;;;;;;;11.77;2.80;;;10.70;98.70;;;;;;5063762;28;20116;-64
2021/11/08 02:27:07;;;;;;;10.38;2.95;;;10.70;98.70;;;;;;5073553;28;20017;-65
2021/11/08 02:29:32;;;;;;;9.88;2.75;;;10.70;98.70;;;;;;5070794;28;20024;-64
2021/11/08 02:32:00;;;;;;;12.57;2.50;;;10.70;98.70;;;;;;5072335;28;20032;-64
2021/11/08 02:34:25;;;;;;;10.60;2.92;;;10.70;98.70;;;;;;5062295;28;20104;-63
2021/11/08 02:36:51;;;;;;;7.15;2.65;;;10.70;98.80;;;;;;5053298;28;20029;-63
2021/11/08 02:39:25;;;;;;;10.82;2.67;;;10.70;98.80;;;;;;5053232;28;20036;-64
2021/11/08 02:41:51;;;;;;;11.98;3.50;;;10.70;98.80;;;;;;5068329;28;20095;-64
2021/11/08 02:44:17;;;;;;;7.38;2.88;;;10.70;98.90;;;;;;5071378;28;20039;-63
2021/11/08 02:46:42;;;;;;;14.18;3.47;;;10.70;99.00;;;;;;5052805;28;20071;-63
2021/11/08 02:49:12;;;;;;;14.88;3.78;;;10.60;98.90;;;;;;5053295;28;20386;-63
2021/11/08 02:51:43;;;;;;;10.50;2.80;;;10.70;99.00;;;;;;5052733;28;20045;-63
2021/11/08 02:54:23;;;;;;;11.73;3.05;;;10.70;99.00;;;;;;5059603;28;20041;-63
2021/11/08 02:56:49;;;;;;;8.40;2.80;;;10.70;99.00;;;;;;5073137;28;20052;-63
2021/11/08 02:59:14;;;;;;;11.82;2.35;;;10.70;99.00;;;;;;5064788;28;20037;-63
2021/11/08 03:01:40;;;;;;;10.02;2.67;;;10.60;99.00;;;;;;5061546;28;20029;-63
2021/11/08 03:04:13;;;;;;;12.70;3.55;;;10.70;99.30;;;;;;5057854;28;20445;-63
2021/11/08 03:06:39;;;;;;;6.35;2.78;;;10.70;99.10;;;;;;5072957;28;20028;-63
2021/11/08 03:09:22;;;;;;;8.57;2.70;;;10.70;99.10;;;;;;5071898;28;20028;-63
2021/11/08 03:11:48;;;;;;;12.13;3.85;;;10.70;99.10;;;;;;5072624;28;20101;-64
2021/11/08 03:14:17;;;;;;;9.15;2.50;;;10.70;99.10;;;;;;5064514;28;20021;-64
2021/11/08 03:16:49;;;;;;;11.48;3.20;;;10.70;99.20;;;;;;5058603;28;20033;-64
2021/11/08 03:19:24;;;;;;;9.90;3.03;;;10.70;99.20;;;;;;5059697;28;20082;-64
2021/11/08 03:21:52;;;;;;;7.35;2.58;;;10.70;99.20;;;;;;5069850;28;20530;-64
2021/11/08 03:27:09;;;;;;;10.50;2.55;;;10.70;99.30;;;;;;5072518;28;20036;-64
2021/11/08 03:29:35;;;;;;;10.15;2.55;;;10.70;99.40;;;;;;5058788;28;20045;-64
2021/11/08 03:32:01;;;;;;;9.07;2.25;;;10.60;99.40;;;;;;5052312;28;20040;-64
2021/11/08 03:34:29;;;;;;;9.93;2.65;;;10.60;99.50;;;;;;5052838;28;20029;-64
2021/11/08 03:36:56;;;;;;;9.10;2.67;;;10.60;99.50;;;;;;5052405;28;20037;-64
2021/11/08 03:39:22;;;;;;;9.95;2.47;;;10.60;99.50;;;;;;5052249;28;20476;-63
2021/11/08 03:41:48;;;;;;;7.82;2.28;;;10.60;99.60;;;;;;5052248;28;20025;-63
2021/11/08 03:44:13;;;;;;;6.85;2.25;;;10.60;99.60;;;;;;5059574;28;20035;-63
2021/11/08 03:46:39;;;;;;;7.95;2.50;;;10.60;99.60;;;;;;5062784;28;20033;-64
2021/11/08 03:49:04;;;;;;;6.78;2.10;;;10.60;99.60;;;;;;5052011;28;20029;-64
2021/11/08 03:51:30;;;;;;;4.93;2.28;;;10.60;99.70;;;;;;5050550;28;20417;-64
2021/11/08 03:53:55;;;;;;;9.02;2.45;;;10.60;99.70;;;;;;5051810;28;20463;-64
2021/11/08 03:56:21;;;;;;;6.20;2.35;;;10.60;99.70;;;;;;5069773;28;20040;-64
2021/11/08 03:58:47;;;;;;;7.22;2.20;;;10.60;99.80;;;;;;5052894;28;20021;-64
2021/11/08 04:01:12;;;;;;;7.63;2.30;;;10.60;99.80;;;;;;5052271;28;20033;-64
2021/11/08 04:03:39;;;;;;;8.35;2.67;;;10.70;99.90;;;;;;5052531;28;20024;-64
2021/11/08 04:06:04;;;;;;;11.50;2.60;;;10.70;99.90;;;;;;5071978;28;20021;-64
2021/11/08 04:08:30;;;;;;;10.30;2.72;;;10.70;99.90;;;;;;5070481;28;20090;-63
2021/11/08 04:10:56;;;;;;;10.75;3.40;;;10.70;99.90;;;;;;5069899;28;20042;-63
2021/11/08 04:13:29;;;;;;;9.27;2.55;;;10.70;99.90;;;;;;5070222;28;20024;-64
2021/11/08 04:15:56;;;;;;;13.30;2.88;;;10.70;99.90;;;;;;5070566;28;20027;-63
2021/11/08 04:18:25;;;;;;;10.38;2.33;;;10.80;99.90;;;;;;5070207;28;20033;-64
2021/11/08 04:20:53;;;;;;;11.20;2.90;;;10.80;99.90;;;;;;5051435;28;20036;-63
2021/11/08 04:23:21;;;;;;;10.48;2.45;;;10.80;99.90;;;;;;5050358;28;20025;-64
2021/11/08 04:25:46;;;;;;;7.28;2.38;;;10.80;99.90;;;;;;5060336;28;20040;-64
2021/11/08 04:28:12;;;;;;;8.75;2.47;;;10.80;99.90;;;;;;5051290;28;20429;-63
2021/11/08 04:30:42;;;;;;;6.65;2.15;;;10.80;99.90;;;;;;5050799;28;20033;-64
2021/11/08 04:33:34;;;;;;;12.05;2.38;;;10.80;99.90;;;;;;5051655;28;20052;-64
2021/11/08 04:38:45;;;;;;;6.78;2.28;;;10.80;99.90;;;;;;5051318;28;20040;-63
2021/11/08 04:41:18;;;;;;;6.60;2.08;;;10.80;99.90;;;;;;5050254;28;20078;-64
2021/11/08 04:46:52;;;;;;;8.00;2.80;;;10.80;99.90;;;;;;5051062;28;20492;-64
2021/11/08 04:49:25;;;;;;;7.50;2.58;;;10.80;99.90;;;;;;5058235;28;20275;-64
2021/11/08 04:54:49;;;;;;;10.35;2.95;;;10.80;99.90;;;;;;5059676;28;20574;-63
2021/11/08 05:30:07;;;;;;;9.40;2.50;;;10.90;99.90;;;;;;5050678;28;20047;-64
2021/11/08 05:32:36;;;;;;;11.30;2.63;;;10.90;99.90;;;;;;5051105;28;20037;-63
2021/11/08 05:35:05;;;;;;;10.50;2.63;;;10.90;99.90;;;;;;5064181;28;20054;-63
2021/11/08 05:37:31;;;;;;;8.60;2.70;;;11.00;99.90;;;;;;5069481;28;20532;-63
2021/11/08 05:40:04;;;;;;;17.27;3.03;;;11.00;99.90;;;;;;5068985;28;20103;-63
2021/11/08 05:42:29;;;;;;;11.52;3.13;;;11.00;99.90;;;;;;5073298;28;20025;-63
2021/11/08 05:44:55;;;;;;;15.52;3.65;;;11.00;99.90;;;;;;5060718;28;20668;-63
2021/11/08 05:47:20;;;;;;;13.50;3.67;;;11.00;99.90;;;;;;5069081;28;20032;-63
2021/11/08 05:49:46;;;;;;;9.10;2.90;;;11.00;99.90;;;;;;5064526;28;20060;-63
2021/11/08 05:52:14;;;;;;;13.25;3.38;;;11.00;99.90;;;;;;5056958;28;20138;-64
2021/11/08 05:54:41;;;;;;;8.82;2.65;;;11.00;99.90;;;;;;5055134;28;20052;-65
2021/11/08 06:00:27;;;;;;;6.90;2.22;;;11.00;99.90;;;;;;5055240;28;20389;-64
2021/11/08 06:49:37;;;;;;;9.02;3.10;;;11.10;99.90;;;;;;5053087;28;20515;-66
2021/11/08 06:52:05;;;;;;;14.38;3.53;;;11.10;99.90;;;;;;5053101;28;20048;-66
2021/11/08 06:54:31;;;;;;;11.70;3.30;;;11.10;99.90;;;;;;5061777;28;20119;-66
2021/11/08 06:57:06;;;;;;;11.35;2.72;;;11.10;99.90;;;;;;5072088;28;20104;-66
2021/11/08 06:59:31;;;;;;;10.98;3.35;;;11.10;99.90;;;;;;5072640;28;20033;-66
2021/11/08 07:01:57;;;;;;;11.93;2.95;;;11.20;99.90;;;;;;5073795;28;20028;-66
2021/11/08 07:04:24;;;;;;;11.68;3.70;;;11.20;99.90;;;;;;5072070;28;20103;-68
2021/11/08 07:06:50;;;;;;;12.65;2.88;;;11.20;99.90;;;;;;5073294;28;20184;-67
2021/11/08 07:09:16;;;;;;;10.20;3.10;;;11.20;99.90;;;;;;5064578;28;20599;-66
2021/11/08 07:11:42;;;;;;;11.23;3.35;;;11.20;99.90;;;;;;5073028;28;20040;-66
2021/11/08 07:14:08;;;;;;;9.40;3.10;;;11.20;99.90;;;;;;5066179;28;20423;-67
2021/11/08 07:16:35;;;;;;;11.90;3.25;;;11.20;99.90;;;;;;5058836;28;20032;-65
2021/11/08 07:19:01;;;;;;;10.00;3.60;;;11.20;99.90;;;;;;5062648;28;20112;-66
2021/11/08 07:21:27;;;;;;;6.68;2.78;;;11.20;99.90;;;;;;5065198;28;20115;-66
2021/11/08 07:23:52;;;;;;;10.45;3.05;;;11.20;99.90;;;;;;5062269;28;20074;-64
2021/11/08 07:26:18;;;;;;;15.70;4.00;;;11.30;99.90;;;;;;5059560;28;20494;-65
2021/11/08 07:28:44;;;;;;;6.70;3.30;;;11.30;99.90;;;;;;5057714;28;20052;-65
2021/11/08 07:31:10;;;;;;;11.68;3.53;;;11.30;99.80;;;;;;5059198;28;20060;-65
2021/11/08 07:33:36;;;;;;;9.27;2.90;;;11.30;99.80;;;;;;5061956;28;20047;-65
2021/11/08 07:36:03;;;;;;;6.60;2.97;;;11.30;99.80;;;;;;5063410;28;20029;-66
2021/11/08 07:38:31;;;;;;;9.27;3.22;;;11.30;99.80;;;;;;5059315;28;20520;-66
2021/11/08 07:40:57;;;;;;;14.73;3.05;;;11.30;99.80;;;;;;5054805;28;20029;-66
2021/11/08 07:43:23;;;;;;;9.73;3.00;;;11.30;99.80;;;;;;5052543;28;20082;-66
2021/11/08 07:45:48;;;;;;;11.45;3.55;;;11.40;99.70;;;;;;5060595;28;20028;-66
2021/11/08 07:48:14;;;;;;;14.02;3.63;;;11.40;99.70;;;;;;5057481;28;20033;-65
2021/11/08 07:50:39;;;;;;;13.85;4.82;;;11.40;99.60;;;;;;5063202;28;20029;-65
2021/11/08 07:53:05;;;;;;;6.90;2.83;;;11.40;99.60;;;;;;5059189;28;20488;-66
2021/11/08 07:55:31;;;;;;;10.98;2.67;;;11.40;99.60;;;;;;5051444;28;20442;-66
2021/11/08 07:57:56;;;;;;;8.40;2.78;;;11.40;99.50;;;;;;5051764;28;20025;-66
2021/11/08 08:00:22;;;;;;;9.48;2.70;;;11.40;99.50;;;;;;5068543;28;20111;-67
2021/11/08 08:02:49;;;;;;;10.98;3.22;;;11.40;99.70;;;;;;5072092;28;20013;-66
2021/11/08 08:05:15;;;;;;;8.27;2.78;;;11.40;99.50;;;;;;5071181;28;20040;-66
2021/11/08 08:07:41;;;;;;;9.82;4.05;;;11.50;99.50;;;;;;5070638;28;20028;-65
2021/11/08 08:10:07;;;;;;;7.82;2.92;;;11.50;99.40;;;;;;5070071;28;20029;-66
2021/11/08 08:12:32;;;;;;;10.10;2.65;;;11.50;99.40;;;;;;5071805;28;20036;-67
2021/11/08 08:14:58;;;;;;;8.90;2.97;;;11.60;99.40;;;;;;5057612;28;20389;-67
2021/11/08 08:17:23;;;;;;;9.38;2.90;;;11.60;99.30;;;;;;5050131;28;20059;-66
2021/11/08 08:19:49;;;;;;;7.53;3.08;;;11.70;99.30;;;;;;5052325;28;20025;-65
2021/11/08 08:22:15;;;;;;;10.43;3.67;;;11.70;99.20;;;;;;5050541;28;20028;-65
2021/11/08 08:24:40;;;;;;;7.82;3.53;;;11.80;99.20;;;;;;5052039;28;20171;-65
2021/11/08 08:27:06;;;;;;;10.65;3.47;;;11.80;99.10;;;;;;5051813;28;20029;-63
2021/11/08 08:29:32;;;;;;;7.45;3.05;;;11.80;98.90;;;;;;5057430;28;20029;-63
2021/11/08 08:31:58;;;;;;;13.05;2.67;;;11.80;98.90;;;;;;5055467;28;20044;-64
2021/11/08 08:34:24;;;;;;;9.38;2.63;;;11.90;98.90;;;;;;5052508;28;20070;-63
2021/11/08 08:36:51;;;;;;;11.32;3.20;;;12.00;98.90;;;;;;5054882;28;20381;-64
2021/11/08 08:39:17;;;;;;;9.05;2.80;;;12.00;98.80;;;;;;5060134;28;20062;-64
2021/11/08 08:41:43;;;;;;;7.72;3.40;;;12.00;98.70;;;;;;5054163;28;20025;-64
2021/11/08 08:44:13;;;;;;;11.70;3.15;;;12.00;98.60;;;;;;5058185;28;20421;-65
2021/11/08 08:46:42;;;;;;;12.00;3.17;;;12.10;98.60;;;;;;5072856;28;20040;-64
2021/11/08 08:49:08;;;;;;;9.60;4.13;;;12.10;98.60;;;;;;5063856;28;20021;-64
2021/11/08 08:51:33;;;;;;;8.93;2.70;;;12.20;98.40;;;;;;5057733;28;20373;-64
2021/11/08 08:53:59;;;;;;;7.63;3.10;;;12.20;98.40;;;;;;5054120;28;20048;-64
2021/11/08 08:56:25;;;;;;;7.53;2.95;;;12.20;98.30;;;;;;5053334;28;20032;-64
2021/11/08 08:58:52;;;;;;;13.63;4.32;;;12.20;98.20;;;;;;5055289;28;20021;-64
2021/11/08 09:01:18;;;;;;;12.10;2.90;;;12.20;98.10;;;;;;5057714;28;20428;-63
2021/11/08 09:03:44;;;;;;;8.35;2.97;;;12.20;98.10;;;;;;5058481;28;20028;-64
2021/11/08 09:06:10;;;;;;;9.75;2.97;;;12.20;98.00;;;;;;5058623;28;20025;-63
2021/11/08 09:08:38;;;;;;;6.22;2.80;;;12.10;97.90;;;;;;5062433;28;20048;-64
2021/11/08 09:11:04;;;;;;;9.20;3.45;;;12.20;97.90;;;;;;5056380;28;20037;-64
2021/11/08 09:13:29;;;;;;;7.72;3.47;;;12.10;97.90;;;;;;5058512;28;20090;-64
2021/11/08 09:15:55;;;;;;;11.10;3.38;;;12.10;97.80;;;;;;5051726;28;20044;-64
2021/11/08 09:18:20;;;;;;;10.85;3.20;;;12.10;97.90;;;;;;5059338;28;20023;-64
2021/11/08 09:20:46;;;;;;;9.88;3.30;;;12.10;97.80;;;;;;5071453;28;20035;-64
2021/11/08 09:23:13;;;;;;;6.45;3.13;;;12.10;97.90;;;;;;5056659;28;20033;-64
2021/11/08 09:25:39;;;;;;;9.70;2.60;;;12.10;97.80;;;;;;5060755;28;20096;-64
2021/11/08 09:28:06;;;;;;;11.25;3.33;;;12.10;97.70;;;;;;5056024;28;20035;-64
2021/11/08 09:30:36;;;;;;;9.40;2.85;;;12.00;97.60;;;;;;5055975;28;20118;-64
2021/11/08 09:33:03;;;;;;;7.07;2.88;;;12.00;97.60;;;;;;5056120;28;20037;-63
2021/11/08 09:35:32;;;;;;;10.48;2.70;;;12.00;97.60;;;;;;5057479;28;20469;-63
2021/11/08 09:37:59;;;;;;;11.90;3.55;;;12.00;97.70;;;;;;5055741;28;20040;-63
2021/11/08 09:40:26;;;;;;;11.68;2.70;;;12.00;97.70;;;;;;5055691;28;20036;-63
2021/11/08 09:42:53;;;;;;;9.15;2.67;;;12.00;97.70;;;;;;5056102;28;20420;-64
2021/11/08 09:45:19;;;;;;;7.35;2.40;;;12.10;97.70;;;;;;5055878;28;20376;-64
2021/11/08 09:47:46;;;;;;;7.65;2.90;;;12.10;97.70;;;;;;5066095;28;20031;-63
2021/11/08 09:50:13;;;;;;;9.15;2.40;;;12.20;97.60;;;;;;5056974;28;20116;-63
2021/11/08 09:52:42;;;;;;;10.75;2.72;;;12.20;97.50;;;;;;5062129;28;20056;-63
2021/11/08 09:55:11;;;;;;;6.65;2.88;;;12.10;97.40;;;;;;5069903;28;20305;-64
2021/11/08 09:57:37;;;;;;;7.05;2.63;;;12.10;97.40;;;;;;5056171;28;20037;-64
2021/11/08 10:00:19;;;;;;;9.02;2.65;;;12.20;97.40;;;;;;5057301;28;20119;-64
2021/11/08 10:02:51;;;;;;;7.07;2.60;;;12.20;97.40;;;;;;5055923;28;20040;-64
2021/11/08 10:05:17;;;;;;;7.90;2.88;;;12.20;97.40;;;;;;5057117;28;20025;-64
2021/11/08 10:07:44;;;;;;;9.80;3.13;;;12.20;97.30;;;;;;5055755;28;20052;-64
2021/11/08 10:10:09;;;;;;;7.85;2.35;;;12.20;97.30;;;;;;5065453;28;20032;-63
2021/11/08 10:12:35;;;;;;;7.90;2.95;;;12.20;97.20;;;;;;5055692;28;20102;-63
2021/11/08 10:15:00;;;;;;;7.97;2.90;;;12.20;97.10;;;;;;5056626;28;20021;-64
2021/11/08 10:17:28;;;;;;;9.25;3.30;;;12.10;97.00;;;;;;5056283;28;20036;-63
2021/11/08 10:19:54;;;;;;;12.80;2.80;;;12.20;97.20;;;;;;5055648;28;20029;-63
2021/11/08 10:22:21;;;;;;;9.68;3.85;;;12.20;97.20;;;;;;5056305;28;20021;-63
2021/11/08 10:24:49;;;;;;;9.70;3.20;;;12.30;97.30;;;;;;5058378;28;20032;-63
2021/11/08 10:27:18;;;;;;;8.27;2.90;;;12.30;97.20;;;;;;5062570;28;20036;-63
2021/11/08 10:29:45;;;;;;;9.98;3.50;;;12.30;97.10;;;;;;5050606;28;20075;-63
2021/11/08 10:32:13;;;;;;;8.18;2.75;;;12.30;97.10;;;;;;5070812;28;20044;-62
2021/11/08 10:34:50;;;;;;;9.32;3.78;;;12.40;97.10;;;;;;5056505;28;20039;-63
2021/11/08 10:37:25;;;;;;;8.00;3.05;;;12.40;97.10;;;;;;5059522;28;20117;-64
2021/11/08 10:39:52;;;;;;;14.80;4.07;;;12.40;97.00;;;;;;5063423;28;20025;-63
2021/11/08 10:42:25;;;;;;;11.82;4.72;;;12.50;96.90;;;;;;5066368;28;20032;-63
2021/11/08 10:44:50;;;;;;;9.73;3.67;;;12.60;96.90;;;;;;5052281;28;20036;-63
2021/11/08 10:47:20;;;;;;;12.13;3.55;;;12.70;96.90;;;;;;5057705;28;20477;-65
2021/11/08 10:49:46;;;;;;;11.60;3.38;;;12.70;96.90;;;;;;5055415;28;20373;-64
2021/11/08 10:52:14;;;;;;;14.23;3.60;;;12.80;96.90;;;;;;5052034;28;20059;-64
2021/11/08 10:54:54;;;;;;;9.18;3.15;;;12.80;96.80;;;;;;5045199;28;20045;-64
2021/11/08 10:57:23;;;;;;;11.27;2.83;;;13.00;96.70;;;;;;5066814;28;20392;-64
2021/11/08 10:59:51;;;;;;;13.25;3.05;;;13.10;96.50;;;;;;5052690;28;20116;-64
2021/11/08 11:02:24;;;;;;;6.97;2.45;;;13.10;96.50;;;;;;5051899;28;20053;-64
2021/11/08 11:04:58;;;;;;;10.30;3.03;;;13.30;96.30;;;;;;5052454;28;20040;-64
2021/11/08 11:07:30;;;;;;;9.50;2.88;;;13.40;96.20;;;;;;5052313;28;20033;-63
2021/11/08 11:10:12;;;;;;;9.57;3.00;;;13.40;96.00;;;;;;5055763;28;20037;-63
2021/11/08 11:12:43;;;;;;;11.43;2.85;;;13.40;96.20;;;;;;5051987;28;20033;-64
2021/11/08 11:15:11;;;;;;;11.52;4.18;;;13.50;95.80;;;;;;5052791;28;20025;-64
2021/11/08 11:17:47;;;;;;;10.05;3.55;;;13.50;95.70;;;;;;5058849;28;20025;-64
2021/11/08 11:20:19;;;;;;;10.50;2.78;;;13.50;95.70;;;;;;5059920;28;20424;-63
2021/11/08 11:22:59;;;;;;;10.95;3.38;;;13.50;95.70;;;;;;5055202;28;20029;-64
2021/11/08 11:25:29;;;;;;;7.93;3.10;;;13.50;95.60;;;;;;5060469;28;20441;-65
2021/11/08 11:27:56;;;;;;;7.47;2.30;;;13.60;95.60;;;;;;5051672;28;20067;-63
2021/11/08 11:30:33;;;;;;;6.10;2.35;;;13.60;95.60;;;;;;5052301;28;20051;-64
2021/11/08 11:33:07;;;;;;;5.80;1.80;;;13.60;95.50;;;;;;5052149;28;20033;-64
2021/11/08 11:35:37;;;;;;;10.60;3.63;;;13.60;95.30;;;;;;5058708;28;20082;-64
2021/11/08 11:38:06;;;;;;;7.57;2.75;;;13.70;95.30;;;;;;5053308;28;20400;-64
2021/11/08 11:40:35;;;;;;;9.32;2.92;;;13.70;95.10;;;;;;5069281;28;20111;-64
2021/11/08 11:43:07;;;;;;;6.85;2.28;;;13.70;95.10;;;;;;5071066;28;20107;-64
2021/11/08 11:45:54;;;;;;;8.65;3.58;;;13.60;95.10;;;;;;5071685;28;20036;-64
2021/11/08 11:48:24;;;;;;;14.00;4.30;;;13.60;95.20;;;;;;5051996;28;20392;-64
2021/11/08 11:50:49;;;;;;;8.75;2.50;;;13.70;95.10;;;;;;5052309;28;20025;-64
2021/11/08 11:53:15;;;;;;;9.23;3.90;;;13.70;95.00;;;;;;5051673;28;20108;-64
2021/11/08 11:55:41;;;;;;;11.93;3.80;;;13.70;95.00;;;;;;5056138;28;20519;-64
2021/11/08 11:58:07;;;;;;;13.07;4.03;;;13.70;95.00;;;;;;5052277;28;20099;-65
2021/11/08 12:00:37;;;;;;;8.93;3.03;;;13.70;94.90;;;;;;5069053;28;20025;-63
2021/11/08 12:03:04;;;;;;;11.85;3.47;;;13.70;94.80;;;;;;5070463;28;20021;-64
2021/11/08 12:05:30;;;;;;;9.57;3.50;;;13.70;94.80;;;;;;5057512;28;20496;-64
2021/11/08 12:07:59;;;;;;;7.47;2.85;;;13.70;94.70;;;;;;5050645;28;20036;-64
2021/11/08 12:10:25;;;;;;;7.20;2.55;;;13.80;94.70;;;;;;5050973;28;20025;-64
2021/11/08 12:12:52;;;;;;;11.40;3.05;;;13.70;94.60;;;;;;5057577;28;20107;-64
2021/11/08 12:15:28;;;;;;;8.98;2.95;;;13.80;94.50;;;;;;5058961;28;20381;-64
2021/11/08 12:17:55;;;;;;;10.20;2.75;;;13.80;94.50;;;;;;5061369;28;20400;-63
2021/11/08 12:20:25;;;;;;;8.07;2.67;;;13.70;94.40;;;;;;5053598;28;20500;-63
2021/11/08 12:22:54;;;;;;;7.82;2.78;;;13.70;94.30;;;;;;5050581;28;20183;-63
2021/11/08 12:25:26;;;;;;;10.02;3.30;;;13.70;94.30;;;;;;5051112;28;20449;-63
2021/11/08 12:28:08;;;;;;;8.98;2.78;;;13.70;94.30;;;;;;5051191;28;20118;-63
2021/11/08 12:30:36;;;;;;;8.02;2.78;;;13.70;94.20;;;;;;5051255;28;20477;-63
2021/11/08 12:33:29;;;;;;;9.13;2.90;;;13.70;94.40;;;;;;5060172;28;20520;-64
2021/11/08 12:36:18;;;;;;;7.57;2.70;;;13.70;94.30;;;;;;5050080;28;20028;-62
2021/11/08 12:39:03;;;;;;;10.93;2.47;;;13.70;94.20;;;;;;5069222;28;20021;-63
2021/11/08 12:41:31;;;;;;;12.02;2.40;;;13.80;94.30;;;;;;5055513;28;20033;-63
2021/11/08 12:44:02;;;;;;;8.38;3.05;;;13.80;94.30;;;;;;5069048;28;20389;-64
2021/11/08 12:46:38;;;;;;;9.05;2.30;;;13.90;94.00;;;;;;5050223;28;20029;-63
2021/11/08 12:49:11;;;;;;;9.90;3.03;;;13.90;93.90;;;;;;5055413;28;20373;-64
2021/11/08 12:51:37;;;;;;;6.97;3.60;;;13.90;93.90;;;;;;5073123;28;20036;-64
2021/11/08 12:54:07;;;;;;;10.77;2.72;;;13.90;93.90;;;;;;5067187;28;20068;-64
2021/11/08 12:56:40;;;;;;;8.95;3.20;;;13.90;93.80;;;;;;5055732;28;20033;-64
2021/11/08 12:59:23;;;;;;;8.70;3.38;;;13.90;93.80;;;;;;5049754;28;20036;-62
2021/11/08 13:02:08;;;;;;;9.60;2.65;;;13.80;93.70;;;;;;5048162;28;20083;-62
2021/11/08 13:04:44;;;;;;;9.53;2.30;;;13.80;93.60;;;;;;5046558;28;20029;-64
2021/11/08 13:07:11;;;;;;;7.50;2.33;;;13.80;93.50;;;;;;5046511;28;20119;-63
2021/11/08 13:09:40;;;;;;;5.85;2.00;;;13.80;93.50;;;;;;5048151;28;20043;-63
2021/11/08 13:12:23;;;;;;;8.90;2.05;;;13.70;93.50;;;;;;5044583;28;20124;-63
2021/11/08 13:15:10;;;;;;;7.57;2.35;;;13.70;93.30;;;;;;5045302;28;20541;-64
2021/11/08 13:18:10;;;;;;;6.88;2.05;;;13.70;93.50;;;;;;5045065;28;20124;-64
2021/11/08 13:20:41;;;;;;;11.75;2.33;;;13.60;93.50;;;;;;5047312;28;20814;-64
2021/11/08 13:23:13;;;;;;;9.25;2.75;;;13.60;93.60;;;;;;5046227;28;20025;-63
2021/11/08 13:25:42;;;;;;;4.70;2.15;;;13.60;93.70;;;;;;5048588;28;20451;-64
2021/11/08 13:28:11;;;;;;;7.75;2.80;;;13.50;93.50;;;;;;5045279;28;20025;-64
2021/11/08 13:30:43;;;;;;;8.82;2.28;;;13.50;93.60;;;;;;5045247;28;20028;-64
2021/11/08 13:33:12;;;;;;;8.45;2.40;;;13.50;93.60;;;;;;5045854;28;20143;-64
2021/11/08 13:35:39;;;;;;;9.45;3.15;;;13.40;93.50;;;;;;5049821;28;20163;-64
2021/11/08 13:38:20;;;;;;;6.07;2.35;;;13.40;93.50;;;;;;5050151;28;20043;-63
2021/11/08 13:40:49;;;;;;;8.10;2.50;;;13.30;93.70;;;;;;5044684;28;20029;-64
2021/11/08 13:43:22;;;;;;;5.88;2.20;;;13.30;93.60;;;;;;5046687;28;20037;-64
2021/11/08 13:45:58;;;;;;;8.95;2.60;;;13.30;93.80;;;;;;5047021;28;20083;-64
2021/11/08 13:48:26;;;;;;;6.13;2.65;;;13.30;93.70;;;;;;5049194;28;20025;-65
2021/11/08 13:50:54;;;;;;;9.55;3.72;;;13.30;93.60;;;;;;5053246;28;20025;-64
2021/11/08 13:53:31;;;;;;;8.25;2.72;;;13.30;93.80;;;;;;5044558;28;20493;-64
2021/11/08 13:56:03;;;;;;;10.07;3.22;;;13.30;93.70;;;;;;5044450;28;20090;-62
2021/11/08 13:58:30;;;;;;;7.80;2.28;;;13.30;93.70;;;;;;5046801;28;20635;-64
2021/11/08 14:01:07;;;;;;;10.07;2.70;;;13.30;93.70;;;;;;5052806;28;20041;-63
2021/11/08 14:03:41;;;;;;;8.80;2.60;;;13.30;93.70;;;;;;5050149;28;20039;-63
2021/11/08 14:06:08;;;;;;;7.72;2.40;;;13.30;93.70;;;;;;5061473;28;20082;-63
2021/11/08 14:08:37;;;;;;;9.27;3.53;;;13.30;93.70;;;;;;5053508;28;20052;-63
2021/11/08 14:11:03;;;;;;;9.70;3.67;;;13.30;93.60;;;;;;5047115;28;22565;-63
2021/11/08 14:13:36;;;;;;;11.70;3.10;;;13.30;93.60;;;;;;5050228;28;20029;-62
2021/11/08 14:16:05;;;;;;;9.85;3.13;;;13.30;93.60;;;;;;5049804;28;20037;-63
2021/11/08 14:18:31;;;;;;;9.40;2.70;;;13.30;93.50;;;;;;5050575;28;20032;-63
2021/11/08 14:21:11;;;;;;;12.43;3.33;;;13.30;93.50;;;;;;5055539;28;20020;-64
2021/11/08 14:23:43;;;;;;;7.93;3.15;;;13.30;93.40;;;;;;5048821;28;20385;-63
2021/11/08 14:26:17;;;;;;;10.65;2.38;;;13.30;93.50;;;;;;5049511;28;20028;-64
2021/11/08 14:28:45;;;;;;;8.18;2.58;;;13.20;93.40;;;;;;5047689;28;20115;-63